Time;durP1;ratioP1;P1;durP2;ratioP2;P2;SDS_P1;SDS_P2;PMS_P1;PMS_P2;Temp;Humidity;BMP_temperature;BMP_pressure;BME280_temperature;BME280_humidity;BME280_pressure;Samples;Min_cycle;Max_cycle;Signal;HPM_P1;HPM_P2
2022/12/03 06:02:12;;;;;;;26.65;13.57;;;4.00;99.90;;;;;;5876292;23;20155;-78
2022/12/03 06:04:38;;;;;;;25.30;13.27;;;4.00;99.90;;;;;;4885730;29;20040;-77
2022/12/03 06:07:06;;;;;;;28.42;13.55;;;3.90;99.90;;;;;;4887990;29;20381;-77
2022/12/03 06:09:32;;;;;;;;;;;3.90;99.90;;;;;;4869943;29;20033;-78
2022/12/03 06:11:58;;;;;;;28.15;13.68;;;3.80;99.90;;;;;;4869405;29;19931;-77
2022/12/03 06:14:23;;;;;;;25.13;14.13;;;3.80;99.90;;;;;;4869544;29;20021;-78
2022/12/03 06:17:05;;;;;;;28.20;15.05;;;3.80;99.90;;;;;;4858030;29;20030;-78
2022/12/03 06:19:31;;;;;;;28.30;14.65;;;3.80;99.90;;;;;;4869868;29;20033;-79
2022/12/03 06:22:15;;;;;;;28.05;14.43;;;3.80;99.90;;;;;;4875386;29;20033;-78
2022/12/03 06:24:52;;;;;;;26.17;13.95;;;3.80;99.90;;;;;;4891930;29;20075;-78
2022/12/03 06:27:22;;;;;;;28.02;14.73;;;3.80;99.90;;;;;;4869998;29;20053;-78
2022/12/03 06:29:50;;;;;;;29.10;15.07;;;3.80;99.90;;;;;;4874603;29;20017;-78
2022/12/03 06:32:16;;;;;;;30.10;15.52;;;3.90;99.90;;;;;;4874988;29;20040;-77
2022/12/03 06:34:51;;;;;;;30.40;14.82;;;3.90;99.90;;;;;;4859137;29;20100;-78
2022/12/03 06:37:20;;;;;;;27.13;14.55;;;3.90;99.90;;;;;;4859949;29;20032;-79
2022/12/03 06:39:52;;;;;;;29.42;15.55;;;3.90;99.90;;;;;;4859407;29;20033;-77
2022/12/03 06:42:23;;;;;;;29.67;14.68;;;3.90;99.90;;;;;;4891334;29;20361;-78
2022/12/03 06:44:55;;;;;;;28.52;14.52;;;3.90;99.90;;;;;;4891379;29;20029;-77
2022/12/03 06:47:21;;;;;;;28.88;14.43;;;4.00;99.90;;;;;;4891593;29;20036;-77
2022/12/03 06:49:49;;;;;;;28.08;14.93;;;4.00;99.90;;;;;;4874682;29;20052;-78
2022/12/03 06:52:15;;;;;;;28.92;14.20;;;4.00;99.90;;;;;;4859847;29;20032;-76
2022/12/03 06:54:46;;;;;;;27.63;14.35;;;4.00;99.90;;;;;;4874451;29;20044;-77
2022/12/03 06:57:15;;;;;;;26.67;13.65;;;4.00;99.90;;;;;;4891290;29;20338;-79
2022/12/03 06:59:41;;;;;;;27.02;13.45;;;4.00;99.90;;;;;;4874004;29;20104;-77
2022/12/03 07:02:11;;;;;;;26.88;13.23;;;4.10;99.90;;;;;;4866457;29;20057;-76
2022/12/03 07:04:40;;;;;;;27.88;14.25;;;4.10;99.90;;;;;;4855492;29;20045;-78
2022/12/03 07:07:05;;;;;;;28.33;14.27;;;4.20;99.90;;;;;;4872757;29;20057;-75
2022/12/03 07:09:31;;;;;;;27.27;14.38;;;4.20;99.90;;;;;;4872703;29;20041;-78
2022/12/03 07:11:57;;;;;;;30.10;14.18;;;4.20;99.90;;;;;;4871572;29;20037;-77
2022/12/03 07:14:23;;;;;;;29.65;15.10;;;4.10;99.90;;;;;;4816255;29;20044;-76
2022/12/03 07:16:49;;;;;;;29.85;14.77;;;4.10;99.90;;;;;;4815488;29;20050;-76
2022/12/03 07:19:14;;;;;;;36.97;20.75;;;4.20;99.90;;;;;;4820013;29;20113;-77
2022/12/03 07:21:40;;;;;;;46.58;26.00;;;4.20;99.90;;;;;;4804864;29;20038;-76
2022/12/03 07:24:06;;;;;;;35.08;16.55;;;4.20;99.90;;;;;;4809872;29;20168;-74
2022/12/03 07:26:32;;;;;;;35.10;16.08;;;4.30;99.90;;;;;;4807156;29;20039;-76
2022/12/03 07:28:58;;;;;;;30.95;16.00;;;4.30;99.90;;;;;;4805191;29;20071;-78
2022/12/03 07:31:23;;;;;;;33.33;16.67;;;4.30;99.90;;;;;;4801141;29;20046;-79
2022/12/03 07:33:50;;;;;;;35.55;16.73;;;4.30;99.90;;;;;;4784538;30;20045;-80
2022/12/03 07:36:16;;;;;;;34.97;16.52;;;4.30;99.90;;;;;;4799325;30;20130;-75
2022/12/03 07:38:42;;;;;;;36.75;16.83;;;4.40;99.90;;;;;;4805671;29;20278;-78
2022/12/03 07:41:09;;;;;;;37.03;17.77;;;4.40;99.90;;;;;;4815561;29;20292;-77
2022/12/03 07:43:35;;;;;;;45.10;22.38;;;4.40;99.90;;;;;;4815402;29;20039;-76
2022/12/03 07:46:10;;;;;;;32.45;16.63;;;4.40;99.90;;;;;;4862084;29;20043;-80
2022/12/03 07:48:38;;;;;;;;;;;4.40;99.90;;;;;;4840714;29;20041;-81
2022/12/03 07:51:14;;;;;;;36.03;16.70;;;4.40;99.90;;;;;;4870807;29;19908;-81
2022/12/03 08:01:32;;;;;;;36.90;17.58;;;4.50;99.90;;;;;;4874542;29;20024;-76
2022/12/03 08:03:57;;;;;;;37.38;17.08;;;4.50;99.90;;;;;;4840368;29;20028;-79
2022/12/03 08:06:23;;;;;;;36.85;18.30;;;4.50;99.90;;;;;;4855420;29;20037;-78
2022/12/03 08:08:49;;;;;;;32.10;15.63;;;4.50;99.90;;;;;;4854012;29;20113;-76
2022/12/03 08:11:14;;;;;;;35.67;16.73;;;4.50;99.90;;;;;;4871597;29;20117;-78
2022/12/03 08:13:40;;;;;;;33.40;16.75;;;4.50;99.90;;;;;;4871266;29;20040;-77
2022/12/03 08:16:18;;;;;;;31.10;15.25;;;4.50;99.90;;;;;;4854506;29;20097;-78
2022/12/03 08:18:56;;;;;;;31.80;15.32;;;4.40;99.90;;;;;;4854833;29;20044;-75
2022/12/03 08:21:22;;;;;;;31.23;15.70;;;4.40;99.90;;;;;;4840848;29;20315;-77
2022/12/03 08:23:48;;;;;;;31.67;15.23;;;4.50;99.90;;;;;;4869438;29;20029;-78
2022/12/03 08:26:34;;;;;;;32.90;16.00;;;4.50;99.90;;;;;;4870615;29;20322;-77
2022/12/03 08:29:30;;;;;;;30.55;15.00;;;4.50;99.90;;;;;;4814592;29;20030;-78
2022/12/03 08:31:57;;;;;;;31.80;15.23;;;4.60;99.90;;;;;;4814289;29;20062;-74
2022/12/03 08:34:26;;;;;;;27.92;14.05;;;4.60;99.90;;;;;;4814232;29;20047;-76
2022/12/03 08:37:07;;;;;;;27.33;15.07;;;4.60;99.90;;;;;;4813479;29;20054;-73
2022/12/03 08:39:43;;;;;;;27.52;13.55;;;4.60;99.90;;;;;;4813555;29;20050;-74
2022/12/03 08:45:40;;;;;;;24.27;12.32;;;4.60;99.90;;;;;;4814160;29;20092;-74
2022/12/03 08:48:06;;;;;;;27.55;13.73;;;4.70;99.90;;;;;;4813656;29;20121;-73
2022/12/03 08:50:37;;;;;;;27.42;13.52;;;4.80;99.90;;;;;;4813940;29;20054;-75
2022/12/03 08:53:31;;;;;;;24.85;12.95;;;4.80;99.90;;;;;;4813732;29;20290;-73
2022/12/03 08:56:31;;;;;;;26.15;13.23;;;4.90;99.90;;;;;;4813372;29;20102;-74
2022/12/03 08:59:22;;;;;;;25.73;13.27;;;4.90;99.90;;;;;;4809377;29;20050;-74
2022/12/03 09:01:48;;;;;;;29.40;13.80;;;4.90;99.90;;;;;;4812217;29;20055;-75
2022/12/03 09:07:34;;;;;;;26.95;13.77;;;4.90;99.90;;;;;;4850485;29;20049;-74
2022/12/03 09:10:15;;;;;;;27.90;13.57;;;4.90;99.90;;;;;;4868558;29;20029;-77
2022/12/03 09:12:50;;;;;;;30.70;14.30;;;4.90;99.90;;;;;;4869756;29;20022;-75
2022/12/03 09:15:18;;;;;;;29.52;14.35;;;4.90;99.90;;;;;;4869966;29;20315;-76
2022/12/03 09:18:04;;;;;;;25.77;12.50;;;4.80;99.90;;;;;;4869882;29;20025;-75
2022/12/03 09:20:52;;;;;;;31.73;14.82;;;4.70;99.90;;;;;;4856421;29;20037;-75
2022/12/03 09:23:18;;;;;;;28.75;14.60;;;4.70;99.90;;;;;;4853483;29;20098;-74
2022/12/03 09:25:43;;;;;;;28.92;13.73;;;4.70;99.90;;;;;;4853193;29;20300;-75
2022/12/03 09:28:18;;;;;;;30.58;14.52;;;4.60;99.90;;;;;;4853262;29;20037;-77
2022/12/03 09:30:50;;;;;;;31.77;14.85;;;4.40;99.90;;;;;;4852828;29;20078;-75
2022/12/03 09:33:16;;;;;;;31.85;14.57;;;4.30;99.90;;;;;;4853399;29;20040;-73
2022/12/03 09:35:42;;;;;;;31.17;14.80;;;4.30;99.90;;;;;;4868957;29;20033;-76
2022/12/03 09:38:08;;;;;;;30.67;14.65;;;4.30;99.90;;;;;;4853258;29;20026;-77
2022/12/03 09:40:33;;;;;;;30.48;15.07;;;4.30;99.90;;;;;;4869572;29;20311;-73
2022/12/03 09:42:59;;;;;;;32.35;15.07;;;4.40;99.90;;;;;;4869126;29;20059;-72
2022/12/03 09:45:25;;;;;;;30.45;13.98;;;4.40;99.90;;;;;;4869315;29;20053;-72
2022/12/03 09:47:51;;;;;;;29.13;15.07;;;4.50;99.90;;;;;;4868580;29;20041;-73
2022/12/03 09:50:25;;;;;;;27.63;13.88;;;4.60;99.90;;;;;;4869426;29;20053;-73
2022/12/03 09:52:57;;;;;;;28.80;14.32;;;4.70;99.90;;;;;;4869244;29;20040;-73
2022/12/03 09:55:26;;;;;;;28.08;13.63;;;4.80;99.90;;;;;;4868968;29;20029;-73
2022/12/03 09:57:52;;;;;;;25.08;12.15;;;4.90;99.90;;;;;;4869029;29;20034;-76
2022/12/03 10:00:22;;;;;;;22.33;11.63;;;5.00;99.90;;;;;;4869271;29;20032;-72
2022/12/03 10:02:50;;;;;;;25.98;13.32;;;5.20;99.90;;;;;;4869175;29;20322;-73
2022/12/03 10:05:18;;;;;;;23.05;11.43;;;5.10;99.90;;;;;;4869585;29;20101;-73
2022/12/03 10:07:45;;;;;;;24.55;11.80;;;5.30;99.90;;;;;;4868519;29;20208;-72
2022/12/03 10:10:20;;;;;;;24.52;12.52;;;5.30;99.90;;;;;;4869740;29;20029;-73
2022/12/03 10:12:46;;;;;;;24.95;12.82;;;5.30;99.90;;;;;;4869041;29;20033;-73
2022/12/03 10:15:14;;;;;;;20.55;11.18;;;5.40;99.90;;;;;;4869598;29;20040;-74
2022/12/03 10:17:41;;;;;;;19.88;10.95;;;5.30;99.90;;;;;;4869515;29;20082;-75
2022/12/03 10:20:31;;;;;;;22.08;11.38;;;5.20;99.90;;;;;;4823240;29;20116;-75
2022/12/03 10:23:06;;;;;;;24.30;12.80;;;5.00;99.90;;;;;;4837751;29;20030;-76
2022/12/03 10:26:20;;;;;;;;;;;;;;;;;;;;;
2022/12/03 10:29:12;;;;;;;21.52;11.90;;;4.90;99.90;;;;;;4794021;29;20051;-74
2022/12/03 10:35:17;;;;;;;24.63;12.20;;;4.90;99.90;;;;;;4832446;29;20263;-76
2022/12/03 10:38:18;;;;;;;25.48;13.50;;;4.80;99.90;;;;;;4848779;29;20034;-77
2022/12/03 10:40:45;;;;;;;24.83;12.73;;;4.70;99.90;;;;;;4833223;29;20065;-73
2022/12/03 10:43:20;;;;;;;23.88;12.60;;;4.70;99.90;;;;;;4848721;29;20034;-76
2022/12/03 10:46:01;;;;;;;22.45;11.95;;;4.80;99.90;;;;;;4848809;29;20059;-77
2022/12/03 10:48:30;;;;;;;23.55;11.95;;;4.80;99.90;;;;;;4846087;29;20042;-74
2022/12/03 10:51:04;;;;;;;22.77;11.43;;;4.80;99.90;;;;;;4840861;29;20045;-75
2022/12/03 10:53:40;;;;;;;22.85;12.57;;;4.80;99.90;;;;;;4859690;29;20065;-75
2022/12/03 10:56:13;;;;;;;23.75;12.35;;;4.70;99.90;;;;;;4837343;29;20192;-75
2022/12/03 10:58:47;;;;;;;23.55;12.48;;;4.70;99.90;;;;;;4868613;29;20278;-76
2022/12/03 11:01:22;;;;;;;24.08;11.75;;;4.70;99.90;;;;;;4852877;29;20060;-75
2022/12/03 11:03:51;;;;;;;24.98;12.77;;;4.70;99.90;;;;;;4855172;29;20053;-75
2022/12/03 11:06:29;;;;;;;23.45;11.82;;;4.80;99.90;;;;;;4872045;29;20033;-75
2022/12/03 11:08:58;;;;;;;23.75;12.00;;;4.70;99.90;;;;;;4872029;29;20025;-76
2022/12/03 11:11:30;;;;;;;23.73;11.95;;;4.70;99.90;;;;;;4872351;29;20049;-77
2022/12/03 11:14:01;;;;;;;22.60;12.13;;;4.70;99.90;;;;;;4871419;29;20066;-74
2022/12/03 11:16:39;;;;;;;21.80;11.60;;;4.80;99.90;;;;;;4872117;29;20033;-74
2022/12/03 11:19:11;;;;;;;;;;;4.70;99.90;;;;;;4872781;29;20036;-74
2022/12/03 11:22:02;;;;;;;24.80;11.88;;;4.70;99.90;;;;;;4873445;29;19908;-82
2022/12/03 11:24:29;;;;;;;25.73;12.15;;;4.70;99.90;;;;;;4855276;29;20041;-77
2022/12/03 11:26:54;;;;;;;23.38;11.70;;;4.70;99.90;;;;;;4870532;29;20034;-75
2022/12/03 11:29:53;;;;;;;22.45;11.93;;;4.50;99.90;;;;;;4870831;29;20478;-77
2022/12/03 11:32:37;;;;;;;21.17;11.20;;;4.50;99.90;;;;;;4854076;29;20036;-76
2022/12/03 11:35:23;;;;;;;22.98;11.73;;;4.50;99.90;;;;;;4870492;29;20108;-76
2022/12/03 11:37:49;;;;;;;21.83;11.13;;;4.40;99.90;;;;;;4869086;29;20318;-76
2022/12/03 11:40:18;;;;;;;22.63;11.38;;;4.40;99.90;;;;;;4870847;29;20307;-74
2022/12/03 11:42:46;;;;;;;21.48;10.60;;;4.50;99.90;;;;;;4870489;29;20326;-77
2022/12/03 11:45:29;;;;;;;22.40;11.40;;;4.50;99.90;;;;;;4870636;29;20029;-73
2022/12/03 11:47:57;;;;;;;19.33;9.55;;;4.60;99.90;;;;;;4853570;29;20056;-76
2022/12/03 11:50:31;;;;;;;20.77;9.85;;;4.50;99.90;;;;;;4870368;29;20105;-76
2022/12/03 11:53:15;;;;;;;21.98;11.25;;;4.60;99.90;;;;;;4870166;29;20056;-75
2022/12/03 11:55:47;;;;;;;22.02;10.70;;;4.70;99.90;;;;;;4854166;29;20029;-75
2022/12/03 11:58:28;;;;;;;22.25;10.27;;;4.60;99.90;;;;;;4870672;29;20198;-76
2022/12/03 12:00:57;;;;;;;20.67;10.20;;;4.60;99.90;;;;;;4868744;29;20105;-75
2022/12/03 12:03:32;;;;;;;;;;;4.70;99.90;;;;;;4870923;29;20041;-75
2022/12/03 12:06:08;;;;;;;19.58;9.48;;;4.70;99.90;;;;;;4853709;29;19915;-76
2022/12/03 12:08:55;;;;;;;20.00;9.85;;;4.60;99.90;;;;;;4870493;29;20061;-75
2022/12/03 12:11:42;;;;;;;19.45;9.48;;;4.50;99.90;;;;;;4870265;29;20227;-76
2022/12/03 12:14:10;;;;;;;22.77;10.50;;;4.50;99.90;;;;;;4869188;29;20036;-74
2022/12/03 12:16:49;;;;;;;20.98;10.80;;;4.50;99.90;;;;;;4870735;29;20081;-75
2022/12/03 12:19:35;;;;;;;23.83;9.80;;;4.50;99.90;;;;;;4876052;29;20029;-76
2022/12/03 12:22:17;;;;;;;20.10;9.85;;;4.60;99.90;;;;;;4851380;29;20045;-76
2022/12/03 12:24:45;;;;;;;23.35;11.00;;;4.60;99.90;;;;;;4835001;29;20070;-76
2022/12/03 12:27:21;;;;;;;21.42;10.38;;;4.50;99.90;;;;;;4852059;29;20040;-76
2022/12/03 12:29:54;;;;;;;18.88;9.55;;;4.40;99.90;;;;;;4851256;29;20205;-75
2022/12/03 12:32:27;;;;;;;23.50;10.90;;;4.40;99.90;;;;;;4828462;29;20280;-74
2022/12/03 12:35:18;;;;;;;22.70;10.52;;;4.40;99.90;;;;;;4869614;29;20053;-74
2022/12/03 12:38:20;;;;;;;19.92;9.48;;;4.40;99.90;;;;;;4870768;29;20271;-77
2022/12/03 12:40:48;;;;;;;20.05;9.68;;;4.50;99.90;;;;;;4874919;29;20081;-76
2022/12/03 12:43:26;;;;;;;22.67;11.07;;;4.50;99.90;;;;;;4862906;29;20049;-76
2022/12/03 12:46:02;;;;;;;19.98;9.77;;;4.50;99.90;;;;;;4848919;29;20064;-78
2022/12/03 12:48:33;;;;;;;19.40;9.93;;;4.60;99.90;;;;;;4865160;29;20053;-75
2022/12/03 12:51:20;;;;;;;22.77;11.90;;;4.50;99.90;;;;;;4834520;29;20053;-73
2022/12/03 12:53:49;;;;;;;21.50;10.70;;;4.40;99.90;;;;;;4833751;29;20188;-74
2022/12/03 12:56:46;;;;;;;21.83;10.80;;;4.50;99.90;;;;;;4850881;29;20056;-74
2022/12/03 12:59:18;;;;;;;18.13;8.75;;;4.30;99.90;;;;;;4866195;29;20320;-73
2022/12/03 13:01:45;;;;;;;22.35;10.77;;;4.20;99.90;;;;;;4866336;29;20082;-73
2022/12/03 13:04:17;;;;;;;22.80;10.60;;;4.20;99.90;;;;;;4861027;29;20101;-72
2022/12/03 13:06:45;;;;;;;20.67;10.55;;;4.30;99.90;;;;;;4859688;29;20041;-74
2022/12/03 13:09:23;;;;;;;19.70;9.85;;;4.20;99.90;;;;;;4868892;29;20048;-73
2022/12/03 13:11:55;;;;;;;22.30;10.57;;;4.20;99.90;;;;;;4869324;29;20025;-76
2022/12/03 13:14:39;;;;;;;22.20;10.38;;;4.30;99.90;;;;;;4839346;29;20054;-76
2022/12/03 13:17:14;;;;;;;;;;;4.20;99.90;;;;;;4850832;29;20034;-75
2022/12/03 13:19:40;;;;;;;24.27;10.73;;;4.20;99.90;;;;;;4850773;29;20054;-74
2022/12/03 13:22:20;;;;;;;23.10;10.15;;;4.30;99.90;;;;;;4850193;29;20160;-75
2022/12/03 13:24:51;;;;;;;22.35;11.05;;;4.30;99.90;;;;;;4833981;29;20045;-75
2022/12/03 13:27:31;;;;;;;24.05;10.88;;;4.30;99.90;;;;;;4849680;29;20041;-73
2022/12/03 13:30:17;;;;;;;22.30;10.98;;;4.30;99.90;;;;;;4833740;29;20036;-75
2022/12/03 13:32:43;;;;;;;22.63;10.65;;;4.10;99.90;;;;;;4844940;29;20033;-75
2022/12/03 13:35:29;;;;;;;24.02;10.32;;;4.20;99.90;;;;;;4868981;29;20041;-75
2022/12/03 13:37:57;;;;;;;23.17;11.15;;;4.20;99.90;;;;;;4868139;29;20100;-72
2022/12/03 13:40:30;;;;;;;23.42;9.85;;;4.10;99.90;;;;;;4852245;29;20041;-75
2022/12/03 13:42:58;;;;;;;23.13;11.15;;;4.00;99.90;;;;;;4868376;29;20063;-76
2022/12/03 13:45:36;;;;;;;21.90;11.05;;;4.00;99.90;;;;;;4852465;29;20252;-74
2022/12/03 13:48:22;;;;;;;20.77;10.50;;;4.00;99.90;;;;;;4851814;29;20049;-78
2022/12/03 13:50:50;;;;;;;22.15;10.85;;;4.00;99.90;;;;;;4852287;29;20256;-77
2022/12/03 13:53:32;;;;;;;23.02;10.80;;;4.10;99.90;;;;;;4866907;29;20041;-78
2022/12/03 13:56:30;;;;;;;20.67;10.38;;;4.10;99.90;;;;;;4851807;29;20312;-76
2022/12/03 13:58:59;;;;;;;25.77;11.27;;;4.10;99.90;;;;;;4851821;29;20049;-77
2022/12/03 14:01:26;;;;;;;22.23;10.38;;;4.10;99.90;;;;;;4852010;29;20347;-75
2022/12/03 14:03:52;;;;;;;25.33;11.18;;;4.10;99.90;;;;;;4836600;29;20053;-77
2022/12/03 14:06:17;;;;;;;25.00;11.18;;;4.10;99.90;;;;;;4852012;29;20128;-76
2022/12/03 14:08:44;;;;;;;21.48;11.02;;;4.20;99.90;;;;;;4851758;29;20048;-75
2022/12/03 14:12:24;;;;;;;21.48;10.90;;;4.30;99.90;;;;;;4851624;29;20109;-75
2022/12/03 14:13:55;;;;;;;22.02;11.05;;;4.30;99.90;;;;;;4867318;29;20048;-77
2022/12/03 14:16:21;;;;;;;22.85;11.38;;;4.30;99.90;;;;;;4868230;29;20225;-77
2022/12/03 14:18:47;;;;;;;24.95;10.40;;;4.30;99.90;;;;;;4868472;29;20057;-77
2022/12/03 14:21:13;;;;;;;23.60;10.68;;;4.30;99.90;;;;;;4868204;29;20068;-77
2022/12/03 14:23:39;;;;;;;25.23;12.30;;;4.30;99.90;;;;;;4837016;29;20136;-75
2022/12/03 14:26:05;;;;;;;24.83;11.27;;;4.30;99.90;;;;;;4835975;29;20382;-75
2022/12/03 14:28:30;;;;;;;22.80;10.75;;;4.10;99.90;;;;;;4868031;29;20101;-76
2022/12/03 14:30:56;;;;;;;23.10;10.63;;;4.00;99.90;;;;;;4867803;29;20025;-75
2022/12/03 14:33:22;;;;;;;22.85;10.70;;;3.90;99.90;;;;;;4867844;29;20052;-75
2022/12/03 14:35:47;;;;;;;26.77;11.68;;;3.80;99.90;;;;;;4868682;29;20082;-76
2022/12/03 14:38:13;;;;;;;23.90;11.13;;;3.80;99.90;;;;;;4854837;29;20483;-76
2022/12/03 14:40:39;;;;;;;23.38;11.10;;;3.80;99.90;;;;;;4870732;29;20045;-78
2022/12/03 14:43:04;;;;;;;23.75;11.18;;;3.90;99.90;;;;;;4871484;29;20078;-75
2022/12/03 14:45:30;;;;;;;23.40;10.73;;;3.90;99.90;;;;;;4855014;29;20025;-75
2022/12/03 14:47:56;;;;;;;22.08;10.57;;;3.90;99.90;;;;;;4871589;29;20049;-75
2022/12/03 14:50:24;;;;;;;24.05;11.55;;;3.90;99.90;;;;;;4871916;29;20049;-76
2022/12/03 14:52:50;;;;;;;27.65;12.73;;;4.00;99.90;;;;;;4871589;29;20029;-78
2022/12/03 14:55:16;;;;;;;25.65;11.63;;;4.00;99.90;;;;;;4869930;29;20117;-79
2022/12/03 14:57:41;;;;;;;23.25;11.13;;;3.80;99.90;;;;;;4855838;29;20327;-76
2022/12/03 15:00:08;;;;;;;25.48;11.30;;;3.90;99.90;;;;;;4870927;29;20033;-77
2022/12/03 15:02:34;;;;;;;24.80;11.25;;;3.80;99.90;;;;;;4854620;29;20046;-76
2022/12/03 15:04:59;;;;;;;24.23;10.77;;;3.80;99.90;;;;;;4854680;29;20104;-77
2022/12/03 15:07:25;;;;;;;23.92;10.65;;;3.80;99.90;;;;;;4871472;29;20347;-78
2022/12/03 15:09:51;;;;;;;24.25;11.30;;;3.80;99.90;;;;;;4871508;29;20025;-77
2022/12/03 15:12:16;;;;;;;24.15;9.95;;;3.80;99.90;;;;;;4854772;29;20032;-77
2022/12/03 15:14:42;;;;;;;25.15;10.77;;;3.80;99.90;;;;;;4870215;29;20041;-77
2022/12/03 15:17:08;;;;;;;25.40;11.50;;;3.80;99.90;;;;;;4854683;29;20045;-77
2022/12/03 15:19:33;;;;;;;26.77;11.30;;;3.80;99.90;;;;;;4871189;29;20101;-76
2022/12/03 15:21:59;;;;;;;23.77;10.55;;;3.70;99.90;;;;;;4870777;29;20184;-75
2022/12/03 15:24:25;;;;;;;23.20;10.85;;;3.70;99.90;;;;;;4854458;29;20057;-76
2022/12/03 15:26:52;;;;;;;24.58;10.70;;;3.70;99.90;;;;;;4854568;29;20046;-76
2022/12/03 15:29:19;;;;;;;21.35;10.70;;;3.70;99.90;;;;;;4870452;29;20322;-77
2022/12/03 15:31:45;;;;;;;26.08;11.30;;;3.70;99.90;;;;;;4854334;29;20082;-77
2022/12/03 15:34:10;;;;;;;21.33;10.05;;;3.70;99.90;;;;;;4854031;29;20038;-77
2022/12/03 15:36:36;;;;;;;26.40;11.40;;;3.70;99.90;;;;;;4870884;29;20313;-76
2022/12/03 15:39:02;;;;;;;21.13;10.00;;;3.70;99.90;;;;;;4869340;29;20038;-75
2022/12/03 15:41:28;;;;;;;21.88;10.07;;;3.60;99.90;;;;;;4870962;29;20044;-76
2022/12/03 15:43:56;;;;;;;21.35;10.05;;;3.60;99.90;;;;;;4871198;29;20036;-74
2022/12/03 15:46:22;;;;;;;22.33;10.40;;;3.60;99.90;;;;;;4854266;29;20291;-76
2022/12/03 15:48:48;;;;;;;20.55;10.27;;;3.50;99.90;;;;;;4870334;29;20025;-76
2022/12/03 15:51:14;;;;;;;18.77;9.60;;;3.40;99.90;;;;;;4838462;29;20287;-76
2022/12/03 15:53:39;;;;;;;21.50;9.73;;;3.40;99.90;;;;;;4870575;29;20036;-76
2022/12/03 15:56:06;;;;;;;19.60;9.38;;;3.40;99.90;;;;;;4870378;29;20034;-76
2022/12/03 15:58:31;;;;;;;19.15;9.48;;;3.40;99.90;;;;;;4870503;29;20307;-78
2022/12/03 16:00:57;;;;;;;18.40;9.20;;;3.40;99.90;;;;;;4868948;29;20060;-76
2022/12/03 16:03:23;;;;;;;21.75;10.15;;;3.30;99.90;;;;;;4870743;29;20208;-75
2022/12/03 16:05:49;;;;;;;20.23;10.25;;;3.20;99.90;;;;;;4870163;29;20111;-77
2022/12/03 16:08:14;;;;;;;20.58;10.20;;;3.10;99.90;;;;;;4853582;29;20037;-75
2022/12/03 16:10:40;;;;;;;20.60;10.93;;;3.10;99.90;;;;;;4870233;29;20070;-76
2022/12/03 16:13:06;;;;;;;22.33;10.27;;;3.10;99.90;;;;;;4869584;29;20036;-77
2022/12/03 16:15:33;;;;;;;22.20;10.18;;;3.10;99.90;;;;;;4853740;29;20044;-76
2022/12/03 16:18:00;;;;;;;26.05;11.05;;;3.00;99.90;;;;;;4869549;29;20379;-75
2022/12/03 16:20:25;;;;;;;20.27;10.52;;;3.00;99.90;;;;;;4869830;29;20296;-77
2022/12/03 16:22:51;;;;;;;22.73;11.07;;;3.00;99.90;;;;;;4868674;29;20139;-77
2022/12/03 16:25:17;;;;;;;21.55;10.70;;;3.00;99.90;;;;;;4851913;29;20089;-76
2022/12/03 16:27:43;;;;;;;22.17;11.13;;;3.00;99.90;;;;;;4851879;29;20041;-75
2022/12/03 16:30:16;;;;;;;22.63;11.68;;;3.00;99.90;;;;;;4855612;29;20081;-77
2022/12/03 16:32:41;;;;;;;20.33;10.60;;;2.90;99.90;;;;;;4843265;29;20025;-76
2022/12/03 16:35:07;;;;;;;22.52;10.82;;;2.90;99.90;;;;;;4859987;29;20048;-77
2022/12/03 16:37:33;;;;;;;22.17;11.90;;;2.90;99.90;;;;;;4869820;29;20069;-76
2022/12/03 16:39:59;;;;;;;21.17;9.82;;;2.90;99.90;;;;;;4852500;29;20085;-77
2022/12/03 16:42:26;;;;;;;22.17;10.48;;;2.90;99.90;;;;;;4853144;29;20078;-76
2022/12/03 16:47:38;;;;;;;23.17;11.45;;;3.00;99.90;;;;;;4840807;29;20077;-76
2022/12/03 16:50:08;;;;;;;24.02;11.02;;;3.00;99.90;;;;;;4846783;29;20366;-76
2022/12/03 16:52:34;;;;;;;21.08;10.95;;;3.00;99.90;;;;;;4857625;29;20041;-77
2022/12/03 16:55:00;;;;;;;26.65;14.93;;;3.00;99.90;;;;;;4852476;29;20056;-78
2022/12/03 16:57:26;;;;;;;32.55;18.48;;;3.00;99.90;;;;;;4852775;29;20022;-76
2022/12/03 16:59:52;;;;;;;24.60;12.18;;;3.00;99.90;;;;;;4867991;29;20143;-75
2022/12/03 17:02:18;;;;;;;19.80;11.18;;;3.00;99.90;;;;;;4857958;29;20098;-74
2022/12/03 17:04:46;;;;;;;20.42;11.50;;;3.10;99.90;;;;;;4859103;29;20049;-76
2022/12/03 17:07:13;;;;;;;21.20;9.82;;;3.10;99.90;;;;;;4846629;29;20033;-75
2022/12/03 17:09:39;;;;;;;22.85;11.65;;;3.10;99.90;;;;;;4837899;29;20030;-74
2022/12/03 17:12:04;;;;;;;23.35;11.43;;;3.00;99.90;;;;;;4850524;29;20030;-77
2022/12/03 17:14:30;;;;;;;22.95;11.68;;;3.00;99.90;;;;;;4850889;29;20276;-77
2022/12/03 17:16:56;;;;;;;22.98;12.60;;;3.00;99.90;;;;;;4834431;29;20042;-76
2022/12/03 17:19:37;;;;;;;21.83;10.88;;;2.90;99.90;;;;;;4852074;29;20150;-75
2022/12/03 17:22:11;;;;;;;25.13;12.45;;;2.90;99.90;;;;;;4850474;29;20090;-75
2022/12/03 17:24:36;;;;;;;27.35;13.90;;;2.90;99.90;;;;;;4850650;29;20058;-76
2022/12/03 17:27:05;;;;;;;23.75;12.02;;;2.90;99.90;;;;;;4833824;29;20093;-76
2022/12/03 17:29:31;;;;;;;26.70;12.82;;;3.00;99.90;;;;;;4850380;29;20047;-75
2022/12/03 17:31:59;;;;;;;25.10;12.93;;;3.00;99.90;;;;;;4839024;29;20037;-75
2022/12/03 17:34:50;;;;;;;28.63;13.27;;;3.00;99.90;;;;;;4852337;29;20215;-73
2022/12/03 17:37:16;;;;;;;31.45;16.55;;;3.10;99.90;;;;;;4852508;29;20029;-73
2022/12/03 17:39:41;;;;;;;26.48;13.80;;;3.10;99.90;;;;;;4852108;29;20101;-76
2022/12/03 17:42:07;;;;;;;23.88;12.20;;;3.10;99.90;;;;;;4868462;29;20043;-75
2022/12/03 17:44:33;;;;;;;25.90;12.02;;;3.10;99.90;;;;;;4869163;29;20236;-75
2022/12/03 17:46:58;;;;;;;25.55;11.52;;;3.10;99.90;;;;;;4868026;29;20048;-75
2022/12/03 17:49:27;;;;;;;22.63;12.05;;;3.00;99.90;;;;;;4851678;29;20318;-74
2022/12/03 17:51:55;;;;;;;23.83;11.65;;;2.90;99.90;;;;;;4869042;29;20029;-75
2022/12/03 17:54:21;;;;;;;23.98;12.77;;;2.90;99.90;;;;;;4867020;29;20047;-77
2022/12/03 17:56:48;;;;;;;22.48;11.52;;;3.00;99.90;;;;;;4868607;29;20053;-73
2022/12/03 17:59:14;;;;;;;22.70;11.38;;;3.00;99.90;;;;;;4852304;29;20090;-75
2022/12/03 18:01:44;;;;;;;22.30;11.02;;;2.90;99.90;;;;;;4849760;29;20034;-77
2022/12/03 18:04:11;;;;;;;25.35;12.15;;;3.00;99.90;;;;;;4836586;29;20105;-78
2022/12/03 18:06:43;;;;;;;19.08;9.57;;;3.00;99.90;;;;;;4836480;29;20075;-80
2022/12/03 18:09:12;;;;;;;22.45;12.75;;;3.00;99.90;;;;;;4867918;29;20045;-79
2022/12/03 18:11:51;;;;;;;23.80;10.23;;;3.00;99.90;;;;;;4883184;29;20042;-77
2022/12/03 18:14:17;;;;;;;21.98;10.65;;;2.90;99.90;;;;;;4874323;29;20111;-76
2022/12/03 18:16:43;;;;;;;22.83;10.80;;;2.90;99.90;;;;;;4874721;29;20041;-75
2022/12/03 18:19:09;;;;;;;22.83;11.00;;;3.00;99.90;;;;;;4857763;29;20092;-77
2022/12/03 18:21:47;;;;;;;21.30;10.20;;;2.90;99.90;;;;;;4858043;29;20052;-78
2022/12/03 18:27:27;;;;;;;21.67;10.43;;;3.00;99.90;;;;;;4857157;29;20020;-78
2022/12/03 18:29:53;;;;;;;24.15;10.80;;;3.00;99.90;;;;;;4858119;29;20064;-77
2022/12/03 18:32:22;;;;;;;46.58;25.85;;;3.10;99.90;;;;;;4857729;29;20045;-75
2022/12/03 18:34:48;;;;;;;29.52;14.60;;;3.20;99.90;;;;;;4875458;29;20045;-76
2022/12/03 18:37:19;;;;;;;29.50;16.63;;;3.20;99.90;;;;;;4843657;29;20029;-76
2022/12/03 18:39:51;;;;;;;24.77;12.43;;;3.20;99.90;;;;;;4844918;29;20064;-76
2022/12/03 18:42:21;;;;;;;22.02;10.27;;;3.20;99.90;;;;;;4844593;29;20374;-77
2022/12/03 18:45:02;;;;;;;24.45;11.02;;;3.10;99.90;;;;;;4873725;29;20248;-77
2022/12/03 18:47:28;;;;;;;24.85;10.95;;;3.10;99.90;;;;;;4872303;29;20040;-77
2022/12/03 18:49:54;;;;;;;21.45;11.05;;;3.20;99.90;;;;;;4842444;29;20049;-77
2022/12/03 18:52:29;;;;;;;21.90;10.43;;;3.10;99.90;;;;;;4839324;29;20045;-76
2022/12/03 18:55:06;;;;;;;19.45;10.10;;;3.20;99.90;;;;;;4857899;29;20085;-76
2022/12/03 18:57:32;;;;;;;21.35;11.40;;;3.20;99.90;;;;;;4857516;29;20092;-77
2022/12/03 18:59:57;;;;;;;22.27;11.10;;;3.20;99.90;;;;;;4874219;29;20304;-78
2022/12/03 19:02:23;;;;;;;26.27;13.43;;;3.10;99.90;;;;;;4839298;29;20231;-78
2022/12/03 19:04:49;;;;;;;24.17;11.75;;;3.10;99.90;;;;;;4845295;29;20061;-78
2022/12/03 19:07:18;;;;;;;25.02;11.18;;;3.10;99.90;;;;;;4839387;29;20037;-77
2022/12/03 19:09:44;;;;;;;21.85;10.68;;;3.00;99.90;;;;;;4871326;29;20326;-77
2022/12/03 19:12:11;;;;;;;23.02;10.80;;;2.90;99.90;;;;;;4857738;29;20026;-76
2022/12/03 19:14:40;;;;;;;24.83;11.93;;;2.90;99.90;;;;;;4857787;29;20045;-82
2022/12/03 19:17:08;;;;;;;;;;;3.00;99.90;;;;;;4873297;29;20038;-77
2022/12/03 19:19:38;;;;;;;;;;;3.00;99.90;;;;;;4843056;29;20224;-78
2022/12/03 19:22:04;;;;;;;28.63;12.32;;;3.00;99.90;;;;;;4840195;29;20178;-77
2022/12/03 19:24:30;;;;;;;23.42;11.32;;;3.00;99.90;;;;;;4854622;29;20035;-77